Mali Losinj, Croatia
Current Conditions -  °F | °C
As of 9:30 AM on Monday 24 Nov 2014 (Local Time) from LDPL Reporting Station
Light Fog Light Fog  
Wind Chill: 54°   Ceiling: Unl
Heat Index: 54°   Visibility: 6mi
Dew Point: 50°   Wind: 5mph
Humidity: 88%   Direction: 10°N
Pressure: 30.24"   Gusts: NA
Location:  44.53°N, 14.47°E
Report Text: LDPL 240730Z 01004KT 9999 MIFG NSC 12/10 Q1024 NOSIG
Loading
Personal Weather Stations






























Interactive Weather Map New forecast layout! Learn more

10-Day Weather Forecast

Advertisements
Track Severe Weather on mobile